sensor_id;sensor_type;location;lat;lon;timestamp;temperature;humidity
6496;DHT22;3281;47.658;9.166;2023-07-20T00:01:25;20.50;1.00
6496;DHT22;3281;47.658;9.166;2023-07-20T00:03:52;20.50;1.00
6496;DHT22;3281;47.658;9.166;2023-07-20T00:06:21;20.50;1.00
6496;DHT22;3281;47.658;9.166;2023-07-20T00:08:48;20.30;1.00
6496;DHT22;3281;47.658;9.166;2023-07-20T00:11:14;20.30;1.00
6496;DHT22;3281;47.658;9.166;2023-07-20T00:13:41;20.20;1.00
6496;DHT22;3281;47.658;9.166;2023-07-20T00:16:09;20.20;1.00
6496;DHT22;3281;47.658;9.166;2023-07-20T00:18:36;20.20;1.00
6496;DHT22;3281;47.658;9.166;2023-07-20T00:21:03;20.10;1.00
6496;DHT22;3281;47.658;9.166;2023-07-20T00:23:29;20.10;1.00
6496;DHT22;3281;47.658;9.166;2023-07-20T00:25:56;20.10;1.00
6496;DHT22;3281;47.658;9.166;2023-07-20T00:28:23;20.20;1.00
6496;DHT22;3281;47.658;9.166;2023-07-20T00:30:49;20.20;1.00
6496;DHT22;3281;47.658;9.166;2023-07-20T00:33:18;20.20;1.00
6496;DHT22;3281;47.658;9.166;2023-07-20T00:35:44;20.20;1.00
6496;DHT22;3281;47.658;9.166;2023-07-20T00:38:11;20.30;1.00
6496;DHT22;3281;47.658;9.166;2023-07-20T00:40:39;20.30;1.00
6496;DHT22;3281;47.658;9.166;2023-07-20T00:43:06;20.20;1.00
6496;DHT22;3281;47.658;9.166;2023-07-20T00:45:33;20.20;1.00
6496;DHT22;3281;47.658;9.166;2023-07-20T00:48:01;20.20;1.00
6496;DHT22;3281;47.658;9.166;2023-07-20T00:50:30;20.20;1.00
6496;DHT22;3281;47.658;9.166;2023-07-20T00:52:57;20.20;1.00
6496;DHT22;3281;47.658;9.166;2023-07-20T00:55:24;20.30;1.00
6496;DHT22;3281;47.658;9.166;2023-07-20T00:57:51;20.30;1.00
6496;DHT22;3281;47.658;9.166;2023-07-20T01:00:19;20.30;1.00
6496;DHT22;3281;47.658;9.166;2023-07-20T01:02:46;20.20;1.00
6496;DHT22;3281;47.658;9.166;2023-07-20T01:05:13;20.30;1.00
6496;DHT22;3281;47.658;9.166;2023-07-20T01:07:49;20.30;1.00
6496;DHT22;3281;47.658;9.166;2023-07-20T01:10:20;20.30;1.00
6496;DHT22;3281;47.658;9.166;2023-07-20T01:12:52;20.30;1.00
6496;DHT22;3281;47.658;9.166;2023-07-20T01:15:19;20.30;1.00
6496;DHT22;3281;47.658;9.166;2023-07-20T01:17:46;20.30;1.00
6496;DHT22;3281;47.658;9.166;2023-07-20T01:20:14;20.40;1.00
6496;DHT22;3281;47.658;9.166;2023-07-20T01:23:01;20.40;1.00
6496;DHT22;3281;47.658;9.166;2023-07-20T01:25:51;20.40;1.00
6496;DHT22;3281;47.658;9.166;2023-07-20T01:28:37;20.30;1.00
6496;DHT22;3281;47.658;9.166;2023-07-20T01:31:21;20.30;1.00
6496;DHT22;3281;47.658;9.166;2023-07-20T01:33:50;20.30;1.00
6496;DHT22;3281;47.658;9.166;2023-07-20T01:36:18;20.30;1.00
6496;DHT22;3281;47.658;9.166;2023-07-20T01:38:46;20.30;1.00
6496;DHT22;3281;47.658;9.166;2023-07-20T01:41:13;20.30;1.00
6496;DHT22;3281;47.658;9.166;2023-07-20T01:43:42;20.30;1.00
6496;DHT22;3281;47.658;9.166;2023-07-20T01:46:08;20.40;1.00
6496;DHT22;3281;47.658;9.166;2023-07-20T01:48:36;20.30;1.00
6496;DHT22;3281;47.658;9.166;2023-07-20T01:51:03;20.40;1.00
6496;DHT22;3281;47.658;9.166;2023-07-20T01:53:30;20.40;1.00
6496;DHT22;3281;47.658;9.166;2023-07-20T01:55:57;20.50;1.00
6496;DHT22;3281;47.658;9.166;2023-07-20T01:58:23;20.50;1.00
6496;DHT22;3281;47.658;9.166;2023-07-20T02:00:50;20.40;1.00
6496;DHT22;3281;47.658;9.166;2023-07-20T02:03:17;20.40;1.00
6496;DHT22;3281;47.658;9.166;2023-07-20T02:05:45;20.50;1.00
6496;DHT22;3281;47.658;9.166;2023-07-20T02:08:11;20.40;1.00
6496;DHT22;3281;47.658;9.166;2023-07-20T02:10:38;20.40;1.00
6496;DHT22;3281;47.658;9.166;2023-07-20T02:13:05;20.40;1.00
6496;DHT22;3281;47.658;9.166;2023-07-20T02:15:31;20.30;1.00
6496;DHT22;3281;47.658;9.166;2023-07-20T02:17:58;20.30;1.00
6496;DHT22;3281;47.658;9.166;2023-07-20T02:20:25;20.30;1.00
6496;DHT22;3281;47.658;9.166;2023-07-20T02:22:54;20.30;1.00
6496;DHT22;3281;47.658;9.166;2023-07-20T02:25:21;20.30;1.00
6496;DHT22;3281;47.658;9.166;2023-07-20T02:27:48;20.20;1.00
6496;DHT22;3281;47.658;9.166;2023-07-20T02:30:14;20.10;1.00
6496;DHT22;3281;47.658;9.166;2023-07-20T02:32:41;20.00;1.00
6496;DHT22;3281;47.658;9.166;2023-07-20T02:35:10;19.90;1.00
6496;DHT22;3281;47.658;9.166;2023-07-20T02:37:37;19.80;1.00
6496;DHT22;3281;47.658;9.166;2023-07-20T02:40:07;19.80;1.00
6496;DHT22;3281;47.658;9.166;2023-07-20T02:42:34;19.70;1.00
6496;DHT22;3281;47.658;9.166;2023-07-20T02:45:01;19.70;1.00
6496;DHT22;3281;47.658;9.166;2023-07-20T02:47:29;19.70;1.00
6496;DHT22;3281;47.658;9.166;2023-07-20T02:49:56;19.80;1.00
6496;DHT22;3281;47.658;9.166;2023-07-20T02:52:23;19.70;1.00
6496;DHT22;3281;47.658;9.166;2023-07-20T02:54:50;19.60;1.00
6496;DHT22;3281;47.658;9.166;2023-07-20T02:57:18;19.60;1.00
6496;DHT22;3281;47.658;9.166;2023-07-20T02:59:45;19.60;1.00
6496;DHT22;3281;47.658;9.166;2023-07-20T03:02:12;19.60;1.00
6496;DHT22;3281;47.658;9.166;2023-07-20T03:04:38;19.50;1.00
6496;DHT22;3281;47.658;9.166;2023-07-20T03:07:05;19.50;1.00
6496;DHT22;3281;47.658;9.166;2023-07-20T03:09:32;19.50;1.00
6496;DHT22;3281;47.658;9.166;2023-07-20T03:11:59;19.50;1.00
6496;DHT22;3281;47.658;9.166;2023-07-20T03:14:27;19.40;1.00
6496;DHT22;3281;47.658;9.166;2023-07-20T03:16:54;19.50;1.00
6496;DHT22;3281;47.658;9.166;2023-07-20T03:19:21;19.50;1.00
6496;DHT22;3281;47.658;9.166;2023-07-20T03:21:47;19.50;1.00
6496;DHT22;3281;47.658;9.166;2023-07-20T03:24:14;19.40;1.00
6496;DHT22;3281;47.658;9.166;2023-07-20T03:26:41;19.50;1.00
6496;DHT22;3281;47.658;9.166;2023-07-20T03:29:08;19.40;1.00
6496;DHT22;3281;47.658;9.166;2023-07-20T03:31:36;19.40;1.00
6496;DHT22;3281;47.658;9.166;2023-07-20T03:34:03;19.40;1.00
6496;DHT22;3281;47.658;9.166;2023-07-20T03:36:30;19.40;1.00
6496;DHT22;3281;47.658;9.166;2023-07-20T03:38:57;19.40;1.00
6496;DHT22;3281;47.658;9.166;2023-07-20T03:41:24;19.40;1.00
6496;DHT22;3281;47.658;9.166;2023-07-20T03:43:50;19.30;1.00
6496;DHT22;3281;47.658;9.166;2023-07-20T03:46:17;19.30;1.00
6496;DHT22;3281;47.658;9.166;2023-07-20T03:48:45;19.20;1.00
6496;DHT22;3281;47.658;9.166;2023-07-20T03:51:12;19.20;1.00
6496;DHT22;3281;47.658;9.166;2023-07-20T03:53:38;19.20;1.00
6496;DHT22;3281;47.658;9.166;2023-07-20T03:56:05;19.20;1.00
6496;DHT22;3281;47.658;9.166;2023-07-20T03:58:32;19.20;1.00
6496;DHT22;3281;47.658;9.166;2023-07-20T04:00:59;19.20;1.00
6496;DHT22;3281;47.658;9.166;2023-07-20T04:03:25;19.20;1.00
6496;DHT22;3281;47.658;9.166;2023-07-20T04:05:54;19.10;1.00
6496;DHT22;3281;47.658;9.166;2023-07-20T04:08:23;19.10;1.00
6496;DHT22;3281;47.658;9.166;2023-07-20T04:10:50;19.20;1.00
6496;DHT22;3281;47.658;9.166;2023-07-20T04:13:17;19.20;1.00
6496;DHT22;3281;47.658;9.166;2023-07-20T04:15:44;19.40;1.00
6496;DHT22;3281;47.658;9.166;2023-07-20T04:18:11;19.30;1.00
6496;DHT22;3281;47.658;9.166;2023-07-20T04:20:38;19.30;1.00
6496;DHT22;3281;47.658;9.166;2023-07-20T04:23:06;19.30;1.00
6496;DHT22;3281;47.658;9.166;2023-07-20T04:25:33;19.40;1.00
6496;DHT22;3281;47.658;9.166;2023-07-20T04:28:05;19.50;1.00
6496;DHT22;3281;47.658;9.166;2023-07-20T04:30:34;19.50;1.00
6496;DHT22;3281;47.658;9.166;2023-07-20T04:33:00;19.50;1.00
6496;DHT22;3281;47.658;9.166;2023-07-20T04:35:51;19.50;1.00
6496;DHT22;3281;47.658;9.166;2023-07-20T04:38:20;19.50;1.00
6496;DHT22;3281;47.658;9.166;2023-07-20T04:40:48;19.50;1.00
6496;DHT22;3281;47.658;9.166;2023-07-20T04:43:16;19.50;1.00
6496;DHT22;3281;47.658;9.166;2023-07-20T04:45:43;19.50;1.00
6496;DHT22;3281;47.658;9.166;2023-07-20T04:48:11;19.60;1.00
6496;DHT22;3281;47.658;9.166;2023-07-20T04:50:38;19.50;1.00
6496;DHT22;3281;47.658;9.166;2023-07-20T04:53:05;19.50;1.00
6496;DHT22;3281;47.658;9.166;2023-07-20T04:55:33;19.50;1.00
6496;DHT22;3281;47.658;9.166;2023-07-20T04:58:00;19.50;1.00
6496;DHT22;3281;47.658;9.166;2023-07-20T05:00:27;19.50;1.00
6496;DHT22;3281;47.658;9.166;2023-07-20T05:02:53;19.50;1.00
6496;DHT22;3281;47.658;9.166;2023-07-20T05:05:20;19.60;1.00
6496;DHT22;3281;47.658;9.166;2023-07-20T05:07:47;19.60;1.00
6496;DHT22;3281;47.658;9.166;2023-07-20T05:10:13;19.60;1.00
6496;DHT22;3281;47.658;9.166;2023-07-20T05:12:41;19.60;1.00
6496;DHT22;3281;47.658;9.166;2023-07-20T05:15:09;19.60;1.00
6496;DHT22;3281;47.658;9.166;2023-07-20T05:17:36;19.60;1.00
6496;DHT22;3281;47.658;9.166;2023-07-20T05:20:03;19.60;1.00
6496;DHT22;3281;47.658;9.166;2023-07-20T05:22:30;19.60;1.00
6496;DHT22;3281;47.658;9.166;2023-07-20T05:24:57;19.60;1.00
6496;DHT22;3281;47.658;9.166;2023-07-20T05:27:24;19.60;1.00
6496;DHT22;3281;47.658;9.166;2023-07-20T05:29:52;19.60;1.00
6496;DHT22;3281;47.658;9.166;2023-07-20T05:32:18;19.60;1.00
6496;DHT22;3281;47.658;9.166;2023-07-20T05:34:45;19.70;1.00
6496;DHT22;3281;47.658;9.166;2023-07-20T05:37:12;19.70;1.00
6496;DHT22;3281;47.658;9.166;2023-07-20T05:39:38;19.70;1.00
6496;DHT22;3281;47.658;9.166;2023-07-20T05:42:05;19.70;1.00
6496;DHT22;3281;47.658;9.166;2023-07-20T05:44:32;19.70;1.00
6496;DHT22;3281;47.658;9.166;2023-07-20T05:47:00;19.70;1.00
6496;DHT22;3281;47.658;9.166;2023-07-20T05:49:28;19.70;1.00
6496;DHT22;3281;47.658;9.166;2023-07-20T05:51:54;19.80;1.00
6496;DHT22;3281;47.658;9.166;2023-07-20T05:54:23;19.90;1.00
6496;DHT22;3281;47.658;9.166;2023-07-20T05:56:50;19.90;1.00
6496;DHT22;3281;47.658;9.166;2023-07-20T05:59:17;19.90;1.00
6496;DHT22;3281;47.658;9.166;2023-07-20T06:01:45;19.80;1.00
6496;DHT22;3281;47.658;9.166;2023-07-20T06:04:13;19.80;1.00
6496;DHT22;3281;47.658;9.166;2023-07-20T06:06:40;19.80;1.00
6496;DHT22;3281;47.658;9.166;2023-07-20T06:09:07;19.90;1.00
6496;DHT22;3281;47.658;9.166;2023-07-20T06:11:37;19.90;1.00
6496;DHT22;3281;47.658;9.166;2023-07-20T06:14:04;20.00;1.00
6496;DHT22;3281;47.658;9.166;2023-07-20T06:16:30;20.10;1.00
6496;DHT22;3281;47.658;9.166;2023-07-20T06:18:58;20.10;1.00
6496;DHT22;3281;47.658;9.166;2023-07-20T06:21:26;20.10;1.00
6496;DHT22;3281;47.658;9.166;2023-07-20T06:23:52;20.10;1.00
6496;DHT22;3281;47.658;9.166;2023-07-20T06:26:19;20.10;1.00
6496;DHT22;3281;47.658;9.166;2023-07-20T06:28:46;20.10;1.00
6496;DHT22;3281;47.658;9.166;2023-07-20T06:31:13;20.30;1.00
6496;DHT22;3281;47.658;9.166;2023-07-20T06:33:39;20.30;1.00
6496;DHT22;3281;47.658;9.166;2023-07-20T06:36:06;20.30;1.00
6496;DHT22;3281;47.658;9.166;2023-07-20T06:38:34;20.30;1.00
6496;DHT22;3281;47.658;9.166;2023-07-20T06:41:01;20.30;1.00
6496;DHT22;3281;47.658;9.166;2023-07-20T06:43:28;20.30;1.00
6496;DHT22;3281;47.658;9.166;2023-07-20T06:45:54;20.30;1.00
6496;DHT22;3281;47.658;9.166;2023-07-20T06:48:22;20.30;1.00
6496;DHT22;3281;47.658;9.166;2023-07-20T06:50:48;20.20;1.00
6496;DHT22;3281;47.658;9.166;2023-07-20T06:53:15;20.20;1.00
6496;DHT22;3281;47.658;9.166;2023-07-20T06:55:44;20.20;1.00
6496;DHT22;3281;47.658;9.166;2023-07-20T06:58:11;20.30;1.00
6496;DHT22;3281;47.658;9.166;2023-07-20T07:00:38;20.30;1.00
6496;DHT22;3281;47.658;9.166;2023-07-20T07:03:05;20.30;1.00
6496;DHT22;3281;47.658;9.166;2023-07-20T07:05:35;20.40;1.00
6496;DHT22;3281;47.658;9.166;2023-07-20T07:08:02;20.50;1.00
6496;DHT22;3281;47.658;9.166;2023-07-20T07:10:29;20.60;1.00
6496;DHT22;3281;47.658;9.166;2023-07-20T07:12:57;20.60;1.00
6496;DHT22;3281;47.658;9.166;2023-07-20T07:15:24;20.70;1.00
6496;DHT22;3281;47.658;9.166;2023-07-20T07:17:51;20.60;1.00
6496;DHT22;3281;47.658;9.166;2023-07-20T07:20:17;20.60;1.00
6496;DHT22;3281;47.658;9.166;2023-07-20T07:22:44;20.60;1.00
6496;DHT22;3281;47.658;9.166;2023-07-20T07:25:12;20.70;1.00
6496;DHT22;3281;47.658;9.166;2023-07-20T07:27:38;20.80;1.00
6496;DHT22;3281;47.658;9.166;2023-07-20T07:30:07;20.70;1.00
6496;DHT22;3281;47.658;9.166;2023-07-20T07:32:34;20.70;1.00
6496;DHT22;3281;47.658;9.166;2023-07-20T07:35:01;20.80;1.00
6496;DHT22;3281;47.658;9.166;2023-07-20T07:37:27;20.80;1.00
6496;DHT22;3281;47.658;9.166;2023-07-20T07:39:54;20.80;1.00
6496;DHT22;3281;47.658;9.166;2023-07-20T07:42:21;20.90;1.00
6496;DHT22;3281;47.658;9.166;2023-07-20T07:44:47;21.00;1.00
6496;DHT22;3281;47.658;9.166;2023-07-20T07:47:15;20.90;1.00
6496;DHT22;3281;47.658;9.166;2023-07-20T07:49:42;20.90;1.00
6496;DHT22;3281;47.658;9.166;2023-07-20T07:52:09;20.90;1.00
6496;DHT22;3281;47.658;9.166;2023-07-20T07:54:36;20.90;1.00
6496;DHT22;3281;47.658;9.166;2023-07-20T07:57:03;20.90;1.00
6496;DHT22;3281;47.658;9.166;2023-07-20T07:59:29;21.00;1.00
6496;DHT22;3281;47.658;9.166;2023-07-20T08:02:02;21.10;1.00
6496;DHT22;3281;47.658;9.166;2023-07-20T08:04:30;21.20;1.00
6496;DHT22;3281;47.658;9.166;2023-07-20T08:06:57;21.20;1.00
6496;DHT22;3281;47.658;9.166;2023-07-20T08:09:24;21.20;1.00
6496;DHT22;3281;47.658;9.166;2023-07-20T08:11:51;21.20;1.00
6496;DHT22;3281;47.658;9.166;2023-07-20T08:14:17;21.20;1.00
6496;DHT22;3281;47.658;9.166;2023-07-20T08:16:44;21.30;1.00
6496;DHT22;3281;47.658;9.166;2023-07-20T08:19:11;21.40;1.00
6496;DHT22;3281;47.658;9.166;2023-07-20T08:21:39;21.50;1.00
6496;DHT22;3281;47.658;9.166;2023-07-20T08:24:06;21.50;1.00
6496;DHT22;3281;47.658;9.166;2023-07-20T08:26:33;21.50;1.00
6496;DHT22;3281;47.658;9.166;2023-07-20T08:28:59;21.50;1.00
6496;DHT22;3281;47.658;9.166;2023-07-20T08:31:26;21.50;1.00
6496;DHT22;3281;47.658;9.166;2023-07-20T08:33:53;21.50;1.00
6496;DHT22;3281;47.658;9.166;2023-07-20T08:36:22;21.60;1.00
6496;DHT22;3281;47.658;9.166;2023-07-20T08:38:50;21.60;1.00
6496;DHT22;3281;47.658;9.166;2023-07-20T08:41:17;21.70;1.00
6496;DHT22;3281;47.658;9.166;2023-07-20T08:43:46;21.70;1.00
6496;DHT22;3281;47.658;9.166;2023-07-20T08:46:14;21.80;1.00
6496;DHT22;3281;47.658;9.166;2023-07-20T08:48:42;21.80;1.00
6496;DHT22;3281;47.658;9.166;2023-07-20T08:51:10;21.80;1.00
6496;DHT22;3281;47.658;9.166;2023-07-20T08:53:38;21.90;1.00
6496;DHT22;3281;47.658;9.166;2023-07-20T08:56:06;21.90;1.00
6496;DHT22;3281;47.658;9.166;2023-07-20T08:58:36;22.00;1.00
6496;DHT22;3281;47.658;9.166;2023-07-20T09:01:04;22.00;1.00
6496;DHT22;3281;47.658;9.166;2023-07-20T09:03:30;22.10;1.00
6496;DHT22;3281;47.658;9.166;2023-07-20T09:05:58;22.10;1.00
6496;DHT22;3281;47.658;9.166;2023-07-20T09:08:25;22.20;1.00
6496;DHT22;3281;47.658;9.166;2023-07-20T09:10:52;22.30;1.00
6496;DHT22;3281;47.658;9.166;2023-07-20T09:13:20;22.30;1.00
6496;DHT22;3281;47.658;9.166;2023-07-20T09:15:47;22.30;1.00
6496;DHT22;3281;47.658;9.166;2023-07-20T09:18:23;22.40;1.00
6496;DHT22;3281;47.658;9.166;2023-07-20T09:20:50;22.50;1.00
6496;DHT22;3281;47.658;9.166;2023-07-20T09:23:17;22.50;1.00
6496;DHT22;3281;47.658;9.166;2023-07-20T09:25:44;22.70;1.00
6496;DHT22;3281;47.658;9.166;2023-07-20T09:28:11;22.90;1.00
6496;DHT22;3281;47.658;9.166;2023-07-20T09:30:39;22.90;1.00
6496;DHT22;3281;47.658;9.166;2023-07-20T09:33:18;22.90;1.00
6496;DHT22;3281;47.658;9.166;2023-07-20T09:35:44;22.90;1.00
6496;DHT22;3281;47.658;9.166;2023-07-20T09:38:11;22.90;1.00
6496;DHT22;3281;47.658;9.166;2023-07-20T09:40:38;23.00;1.00
6496;DHT22;3281;47.658;9.166;2023-07-20T09:43:08;23.30;1.00
6496;DHT22;3281;47.658;9.166;2023-07-20T09:45:35;23.50;1.00
6496;DHT22;3281;47.658;9.166;2023-07-20T09:48:08;23.50;1.00
6496;DHT22;3281;47.658;9.166;2023-07-20T09:50:39;23.70;1.00
6496;DHT22;3281;47.658;9.166;2023-07-20T09:53:07;23.90;1.00
6496;DHT22;3281;47.658;9.166;2023-07-20T09:55:34;23.70;1.00
6496;DHT22;3281;47.658;9.166;2023-07-20T09:58:01;23.60;1.00
6496;DHT22;3281;47.658;9.166;2023-07-20T10:00:29;23.70;1.00
6496;DHT22;3281;47.658;9.166;2023-07-20T10:02:56;23.20;1.00
6496;DHT22;3281;47.658;9.166;2023-07-20T10:05:27;23.50;1.00
6496;DHT22;3281;47.658;9.166;2023-07-20T10:07:55;23.50;1.00
6496;DHT22;3281;47.658;9.166;2023-07-20T10:10:22;23.30;1.00
6496;DHT22;3281;47.658;9.166;2023-07-20T10:12:50;24.50;1.00
6496;DHT22;3281;47.658;9.166;2023-07-20T10:15:20;24.70;1.00
6496;DHT22;3281;47.658;9.166;2023-07-20T10:17:56;24.60;1.00
6496;DHT22;3281;47.658;9.166;2023-07-20T10:20:26;24.90;1.00
6496;DHT22;3281;47.658;9.166;2023-07-20T10:22:54;25.80;1.00
6496;DHT22;3281;47.658;9.166;2023-07-20T10:25:23;25.20;1.00
6496;DHT22;3281;47.658;9.166;2023-07-20T10:27:50;24.60;1.00
6496;DHT22;3281;47.658;9.166;2023-07-20T10:30:18;24.60;1.00
6496;DHT22;3281;47.658;9.166;2023-07-20T10:32:46;25.90;1.00
6496;DHT22;3281;47.658;9.166;2023-07-20T10:35:14;26.80;1.00
6496;DHT22;3281;47.658;9.166;2023-07-20T10:37:53;27.50;1.00
6496;DHT22;3281;47.658;9.166;2023-07-20T10:40:31;27.50;1.00
6496;DHT22;3281;47.658;9.166;2023-07-20T10:43:05;27.90;1.00
6496;DHT22;3281;47.658;9.166;2023-07-20T10:45:39;27.00;1.00
6496;DHT22;3281;47.658;9.166;2023-07-20T10:48:13;28.30;1.00
6496;DHT22;3281;47.658;9.166;2023-07-20T10:50:40;28.00;1.00
6496;DHT22;3281;47.658;9.166;2023-07-20T10:53:13;28.70;1.00
6496;DHT22;3281;47.658;9.166;2023-07-20T10:55:41;28.80;1.00
6496;DHT22;3281;47.658;9.166;2023-07-20T10:58:10;29.00;1.00
6496;DHT22;3281;47.658;9.166;2023-07-20T11:00:37;28.90;1.00
6496;DHT22;3281;47.658;9.166;2023-07-20T11:03:04;29.00;1.00
6496;DHT22;3281;47.658;9.166;2023-07-20T11:05:36;28.80;1.00
6496;DHT22;3281;47.658;9.166;2023-07-20T11:08:05;28.30;1.00
6496;DHT22;3281;47.658;9.166;2023-07-20T11:10:33;28.10;1.00
6496;DHT22;3281;47.658;9.166;2023-07-20T11:13:19;28.80;1.00
6496;DHT22;3281;47.658;9.166;2023-07-20T11:15:47;28.70;1.00
6496;DHT22;3281;47.658;9.166;2023-07-20T11:18:14;29.10;1.00
6496;DHT22;3281;47.658;9.166;2023-07-20T11:20:41;28.80;1.00
6496;DHT22;3281;47.658;9.166;2023-07-20T11:23:09;28.20;1.00
6496;DHT22;3281;47.658;9.166;2023-07-20T11:25:40;27.50;1.00
6496;DHT22;3281;47.658;9.166;2023-07-20T11:28:07;26.80;1.00
6496;DHT22;3281;47.658;9.166;2023-07-20T11:30:36;26.30;1.00
6496;DHT22;3281;47.658;9.166;2023-07-20T11:33:03;25.90;1.00
6496;DHT22;3281;47.658;9.166;2023-07-20T11:35:30;26.20;1.00
6496;DHT22;3281;47.658;9.166;2023-07-20T11:37:57;26.60;1.00
6496;DHT22;3281;47.658;9.166;2023-07-20T11:40:23;26.50;1.00
6496;DHT22;3281;47.658;9.166;2023-07-20T11:42:53;26.00;1.00
6496;DHT22;3281;47.658;9.166;2023-07-20T11:45:20;25.50;1.00
6496;DHT22;3281;47.658;9.166;2023-07-20T11:47:46;25.10;1.00
6496;DHT22;3281;47.658;9.166;2023-07-20T11:50:13;25.00;1.00
6496;DHT22;3281;47.658;9.166;2023-07-20T11:52:40;24.70;1.00
6496;DHT22;3281;47.658;9.166;2023-07-20T11:55:08;24.60;1.00
6496;DHT22;3281;47.658;9.166;2023-07-20T11:57:34;24.70;1.00
6496;DHT22;3281;47.658;9.166;2023-07-20T12:00:04;24.70;1.00
6496;DHT22;3281;47.658;9.166;2023-07-20T12:02:37;24.70;1.00
6496;DHT22;3281;47.658;9.166;2023-07-20T12:05:05;24.60;1.00
6496;DHT22;3281;47.658;9.166;2023-07-20T12:07:35;24.70;1.00
6496;DHT22;3281;47.658;9.166;2023-07-20T12:10:06;24.70;1.00
6496;DHT22;3281;47.658;9.166;2023-07-20T12:12:33;24.60;1.00
6496;DHT22;3281;47.658;9.166;2023-07-20T12:15:19;24.50;1.00
6496;DHT22;3281;47.658;9.166;2023-07-20T12:17:49;24.40;1.00
6496;DHT22;3281;47.658;9.166;2023-07-20T12:20:25;24.40;1.00
6496;DHT22;3281;47.658;9.166;2023-07-20T12:22:52;24.40;1.00
6496;DHT22;3281;47.658;9.166;2023-07-20T12:25:19;24.50;1.00
6496;DHT22;3281;47.658;9.166;2023-07-20T12:27:48;24.50;1.00
6496;DHT22;3281;47.658;9.166;2023-07-20T12:30:16;24.50;1.00
6496;DHT22;3281;47.658;9.166;2023-07-20T12:32:43;24.60;1.00
6496;DHT22;3281;47.658;9.166;2023-07-20T12:35:10;24.50;1.00
6496;DHT22;3281;47.658;9.166;2023-07-20T12:37:40;24.50;1.00
6496;DHT22;3281;47.658;9.166;2023-07-20T12:40:07;24.50;1.00
6496;DHT22;3281;47.658;9.166;2023-07-20T12:42:36;24.40;1.00
6496;DHT22;3281;47.658;9.166;2023-07-20T12:45:05;24.20;1.00
6496;DHT22;3281;47.658;9.166;2023-07-20T12:47:33;24.00;1.00
6496;DHT22;3281;47.658;9.166;2023-07-20T12:50:00;23.90;1.00
6496;DHT22;3281;47.658;9.166;2023-07-20T12:52:27;23.90;1.00
6496;DHT22;3281;47.658;9.166;2023-07-20T12:54:53;24.00;1.00
6496;DHT22;3281;47.658;9.166;2023-07-20T12:57:20;24.00;1.00
6496;DHT22;3281;47.658;9.166;2023-07-20T12:59:47;24.10;1.00
6496;DHT22;3281;47.658;9.166;2023-07-20T13:02:13;24.20;1.00
6496;DHT22;3281;47.658;9.166;2023-07-20T13:04:42;24.40;1.00
6496;DHT22;3281;47.658;9.166;2023-07-20T13:07:10;24.40;1.00
6496;DHT22;3281;47.658;9.166;2023-07-20T13:09:37;24.30;1.00
6496;DHT22;3281;47.658;9.166;2023-07-20T13:12:04;24.20;1.00
6496;DHT22;3281;47.658;9.166;2023-07-20T13:14:31;24.10;1.00
6496;DHT22;3281;47.658;9.166;2023-07-20T13:16:58;24.10;1.00
6496;DHT22;3281;47.658;9.166;2023-07-20T13:19:24;24.30;1.00
6496;DHT22;3281;47.658;9.166;2023-07-20T13:21:52;24.30;1.00
6496;DHT22;3281;47.658;9.166;2023-07-20T13:24:19;24.40;1.00
6496;DHT22;3281;47.658;9.166;2023-07-20T13:26:46;24.60;1.00
6496;DHT22;3281;47.658;9.166;2023-07-20T13:29:13;24.70;1.00
6496;DHT22;3281;47.658;9.166;2023-07-20T13:31:39;24.80;1.00
6496;DHT22;3281;47.658;9.166;2023-07-20T13:34:06;24.80;1.00
6496;DHT22;3281;47.658;9.166;2023-07-20T13:36:33;24.60;1.00
6496;DHT22;3281;47.658;9.166;2023-07-20T13:39:01;24.50;1.00
6496;DHT22;3281;47.658;9.166;2023-07-20T13:41:30;24.60;1.00
6496;DHT22;3281;47.658;9.166;2023-07-20T13:43:57;24.70;1.00
6496;DHT22;3281;47.658;9.166;2023-07-20T13:46:24;24.70;1.00
6496;DHT22;3281;47.658;9.166;2023-07-20T13:48:51;24.80;1.00
6496;DHT22;3281;47.658;9.166;2023-07-20T13:51:17;24.80;1.00
6496;DHT22;3281;47.658;9.166;2023-07-20T13:53:45;24.90;1.00
6496;DHT22;3281;47.658;9.166;2023-07-20T13:56:13;25.00;1.00
6496;DHT22;3281;47.658;9.166;2023-07-20T13:58:40;25.10;1.00
6496;DHT22;3281;47.658;9.166;2023-07-20T14:01:07;25.10;1.00
6496;DHT22;3281;47.658;9.166;2023-07-20T14:03:34;25.00;1.00
6496;DHT22;3281;47.658;9.166;2023-07-20T14:06:01;25.10;1.00
6496;DHT22;3281;47.658;9.166;2023-07-20T14:08:27;25.10;1.00
6496;DHT22;3281;47.658;9.166;2023-07-20T14:10:55;25.00;1.00
6496;DHT22;3281;47.658;9.166;2023-07-20T14:13:23;25.10;1.00
6496;DHT22;3281;47.658;9.166;2023-07-20T14:15:50;25.10;1.00
6496;DHT22;3281;47.658;9.166;2023-07-20T14:18:16;25.00;1.00
6496;DHT22;3281;47.658;9.166;2023-07-20T14:20:43;24.80;1.00
6496;DHT22;3281;47.658;9.166;2023-07-20T14:23:10;24.80;1.00
6496;DHT22;3281;47.658;9.166;2023-07-20T14:25:37;24.90;1.00
6496;DHT22;3281;47.658;9.166;2023-07-20T14:28:03;24.90;1.00
6496;DHT22;3281;47.658;9.166;2023-07-20T14:30:31;25.00;1.00
6496;DHT22;3281;47.658;9.166;2023-07-20T14:32:58;25.10;1.00
6496;DHT22;3281;47.658;9.166;2023-07-20T14:35:26;25.10;1.00
6496;DHT22;3281;47.658;9.166;2023-07-20T14:37:52;25.20;1.00
6496;DHT22;3281;47.658;9.166;2023-07-20T14:40:19;25.20;1.00
6496;DHT22;3281;47.658;9.166;2023-07-20T14:42:46;25.20;1.00
6496;DHT22;3281;47.658;9.166;2023-07-20T14:45:13;25.20;1.00
6496;DHT22;3281;47.658;9.166;2023-07-20T14:47:41;25.10;1.00
6496;DHT22;3281;47.658;9.166;2023-07-20T14:50:09;25.00;1.00
6496;DHT22;3281;47.658;9.166;2023-07-20T14:52:36;24.90;1.00
6496;DHT22;3281;47.658;9.166;2023-07-20T14:55:03;24.80;1.00
6496;DHT22;3281;47.658;9.166;2023-07-20T14:57:30;24.80;1.00
6496;DHT22;3281;47.658;9.166;2023-07-20T14:59:56;24.80;1.00
6496;DHT22;3281;47.658;9.166;2023-07-20T15:02:23;24.70;1.00
6496;DHT22;3281;47.658;9.166;2023-07-20T15:04:51;24.70;1.00
6496;DHT22;3281;47.658;9.166;2023-07-20T15:07:19;24.70;1.00
6496;DHT22;3281;47.658;9.166;2023-07-20T15:09:46;24.70;1.00
6496;DHT22;3281;47.658;9.166;2023-07-20T15:12:13;24.70;1.00
6496;DHT22;3281;47.658;9.166;2023-07-20T15:14:41;24.80;1.00
6496;DHT22;3281;47.658;9.166;2023-07-20T15:17:08;24.70;1.00
6496;DHT22;3281;47.658;9.166;2023-07-20T15:19:35;24.60;1.00
6496;DHT22;3281;47.658;9.166;2023-07-20T15:22:04;24.70;1.00
6496;DHT22;3281;47.658;9.166;2023-07-20T15:24:31;24.70;1.00
6496;DHT22;3281;47.658;9.166;2023-07-20T15:26:58;24.70;1.00
6496;DHT22;3281;47.658;9.166;2023-07-20T15:29:25;24.80;1.00
6496;DHT22;3281;47.658;9.166;2023-07-20T15:31:52;24.80;1.00
6496;DHT22;3281;47.658;9.166;2023-07-20T15:34:19;24.70;1.00
6496;DHT22;3281;47.658;9.166;2023-07-20T15:36:46;24.80;1.00
6496;DHT22;3281;47.658;9.166;2023-07-20T15:39:14;24.70;1.00
6496;DHT22;3281;47.658;9.166;2023-07-20T15:41:41;24.60;1.00
6496;DHT22;3281;47.658;9.166;2023-07-20T15:44:07;24.60;1.00
6496;DHT22;3281;47.658;9.166;2023-07-20T15:46:45;24.60;1.00
6496;DHT22;3281;47.658;9.166;2023-07-20T15:49:11;24.50;1.00
6496;DHT22;3281;47.658;9.166;2023-07-20T15:51:38;24.50;1.00
6496;DHT22;3281;47.658;9.166;2023-07-20T15:54:07;24.30;1.00
6496;DHT22;3281;47.658;9.166;2023-07-20T15:56:37;24.20;1.00
6496;DHT22;3281;47.658;9.166;2023-07-20T15:59:04;24.30;1.00
6496;DHT22;3281;47.658;9.166;2023-07-20T16:01:31;24.30;1.00
6496;DHT22;3281;47.658;9.166;2023-07-20T16:03:58;24.30;1.00
6496;DHT22;3281;47.658;9.166;2023-07-20T16:06:25;24.20;1.00
6496;DHT22;3281;47.658;9.166;2023-07-20T16:08:52;24.20;1.00
6496;DHT22;3281;47.658;9.166;2023-07-20T16:11:18;24.10;1.00
6496;DHT22;3281;47.658;9.166;2023-07-20T16:13:47;24.10;1.00
6496;DHT22;3281;47.658;9.166;2023-07-20T16:16:14;24.20;1.00
6496;DHT22;3281;47.658;9.166;2023-07-20T16:18:41;24.10;1.00
6496;DHT22;3281;47.658;9.166;2023-07-20T16:21:08;24.10;1.00